sensor_id;sensor_type;location;lat;lon;timestamp;pressure;altitude;pressure_sealevel;temperature;humidity
79285;BME280;68734;50.452;11.636;2024-02-14T00:02:12;95871.00;;;0.58;94.79
79285;BME280;68734;50.452;11.636;2024-02-14T00:04:38;95868.56;;;0.64;94.53
79285;BME280;68734;50.452;11.636;2024-02-14T00:07:04;95871.09;;;0.72;94.41
79285;BME280;68734;50.452;11.636;2024-02-14T00:09:30;95874.84;;;0.77;93.85
79285;BME280;68734;50.452;11.636;2024-02-14T00:11:55;95867.13;;;0.83;93.85
79285;BME280;68734;50.452;11.636;2024-02-14T00:14:23;95869.97;;;0.81;93.62
79285;BME280;68734;50.452;11.636;2024-02-14T00:16:49;95881.50;;;0.88;93.74
79285;BME280;68734;50.452;11.636;2024-02-14T00:19:15;95874.56;;;0.94;93.15
79285;BME280;68734;50.452;11.636;2024-02-14T00:21:41;95868.88;;;0.97;93.09
79285;BME280;68734;50.452;11.636;2024-02-14T00:24:06;95875.00;;;0.97;92.79
79285;BME280;68734;50.452;11.636;2024-02-14T00:26:32;95876.25;;;1.02;92.41
79285;BME280;68734;50.452;11.636;2024-02-14T00:28:57;95870.94;;;1.02;92.35
79285;BME280;68734;50.452;11.636;2024-02-14T00:31:23;95867.66;;;0.99;92.31
79285;BME280;68734;50.452;11.636;2024-02-14T00:33:48;95856.00;;;1.01;92.30
79285;BME280;68734;50.452;11.636;2024-02-14T00:36:14;95861.56;;;1.06;92.32
79285;BME280;68734;50.452;11.636;2024-02-14T00:38:40;95864.03;;;1.07;91.74
79285;BME280;68734;50.452;11.636;2024-02-14T00:41:05;95866.88;;;1.06;91.68
79285;BME280;68734;50.452;11.636;2024-02-14T00:43:31;95861.56;;;1.06;91.70
79285;BME280;68734;50.452;11.636;2024-02-14T00:45:56;95866.06;;;1.05;91.75
79285;BME280;68734;50.452;11.636;2024-02-14T00:48:22;95863.78;;;1.02;91.96
79285;BME280;68734;50.452;11.636;2024-02-14T00:50:48;95869.31;;;1.01;92.11
79285;BME280;68734;50.452;11.636;2024-02-14T00:53:14;95868.09;;;1.03;92.03
79285;BME280;68734;50.452;11.636;2024-02-14T00:55:39;95863.59;;;1.04;91.96
79285;BME280;68734;50.452;11.636;2024-02-14T00:58:05;95864.38;;;0.97;92.12
79285;BME280;68734;50.452;11.636;2024-02-14T01:00:30;95861.88;;;0.96;92.36
79285;BME280;68734;50.452;11.636;2024-02-14T01:02:57;95857.00;;;0.99;92.26
79285;BME280;68734;50.452;11.636;2024-02-14T01:05:23;95864.81;;;1.01;92.34
79285;BME280;68734;50.452;11.636;2024-02-14T01:07:49;95857.41;;;0.96;92.64
79285;BME280;68734;50.452;11.636;2024-02-14T01:10:14;95865.63;;;1.02;92.22
79285;BME280;68734;50.452;11.636;2024-02-14T01:12:42;95867.66;;;0.99;92.51
79285;BME280;68734;50.452;11.636;2024-02-14T01:15:08;95866.84;;;0.99;92.62
79285;BME280;68734;50.452;11.636;2024-02-14T01:17:33;95863.72;;;0.95;92.79
79285;BME280;68734;50.452;11.636;2024-02-14T01:20:01;95860.84;;;0.90;93.06
79285;BME280;68734;50.452;11.636;2024-02-14T01:22:27;95855.72;;;0.89;93.17
79285;BME280;68734;50.452;11.636;2024-02-14T01:24:55;95846.25;;;0.86;93.36
79285;BME280;68734;50.452;11.636;2024-02-14T01:27:21;95853.88;;;0.89;93.64
79285;BME280;68734;50.452;11.636;2024-02-14T01:29:48;95856.53;;;0.89;93.69
79285;BME280;68734;50.452;11.636;2024-02-14T01:32:13;95857.16;;;0.91;93.75
79285;BME280;68734;50.452;11.636;2024-02-14T01:34:42;95847.34;;;0.92;93.89
79285;BME280;68734;50.452;11.636;2024-02-14T01:37:08;95853.50;;;0.92;93.84
79285;BME280;68734;50.452;11.636;2024-02-14T01:39:35;95845.50;;;0.92;93.70
79285;BME280;68734;50.452;11.636;2024-02-14T01:42:01;95845.88;;;0.89;94.12
79285;BME280;68734;50.452;11.636;2024-02-14T01:44:26;95849.19;;;0.91;94.13
79285;BME280;68734;50.452;11.636;2024-02-14T01:46:52;95855.31;;;0.92;94.29
79285;BME280;68734;50.452;11.636;2024-02-14T01:49:18;95858.81;;;0.92;94.31
79285;BME280;68734;50.452;11.636;2024-02-14T01:51:44;95849.19;;;0.91;94.35
79285;BME280;68734;50.452;11.636;2024-02-14T01:54:12;95851.47;;;0.94;94.16
79285;BME280;68734;50.452;11.636;2024-02-14T01:56:38;95847.16;;;0.93;93.80
79285;BME280;68734;50.452;11.636;2024-02-14T01:59:05;95834.00;;;0.85;94.17
79285;BME280;68734;50.452;11.636;2024-02-14T02:01:31;95826.66;;;0.87;94.30
79285;BME280;68734;50.452;11.636;2024-02-14T02:03:57;95834.81;;;0.86;94.50
79285;BME280;68734;50.452;11.636;2024-02-14T02:06:23;95833.56;;;0.82;95.01
79285;BME280;68734;50.452;11.636;2024-02-14T02:08:51;95836.78;;;0.77;95.13
79285;BME280;68734;50.452;11.636;2024-02-14T02:11:17;95833.09;;;0.78;95.17
79285;BME280;68734;50.452;11.636;2024-02-14T02:13:42;95821.03;;;0.75;94.93
79285;BME280;68734;50.452;11.636;2024-02-14T02:16:11;95824.13;;;0.79;94.73
79285;BME280;68734;50.452;11.636;2024-02-14T02:18:37;95826.00;;;0.85;94.17
79285;BME280;68734;50.452;11.636;2024-02-14T02:21:03;95829.31;;;0.87;93.71
79285;BME280;68734;50.452;11.636;2024-02-14T02:23:36;95830.97;;;0.88;93.82
79285;BME280;68734;50.452;11.636;2024-02-14T02:26:02;95813.53;;;0.86;93.89
79285;BME280;68734;50.452;11.636;2024-02-14T02:28:27;95816.81;;;0.88;93.89
79285;BME280;68734;50.452;11.636;2024-02-14T02:30:53;95812.75;;;0.92;93.39
79285;BME280;68734;50.452;11.636;2024-02-14T02:33:21;95819.53;;;0.94;93.30
79285;BME280;68734;50.452;11.636;2024-02-14T02:35:47;95820.19;;;0.96;93.17
79285;BME280;68734;50.452;11.636;2024-02-14T02:38:18;95806.25;;;0.94;92.90
79285;BME280;68734;50.452;11.636;2024-02-14T02:40:45;95808.50;;;0.97;92.91
79285;BME280;68734;50.452;11.636;2024-02-14T02:43:10;95796.47;;;1.02;92.90
79285;BME280;68734;50.452;11.636;2024-02-14T02:45:36;95797.69;;;0.99;92.97
79285;BME280;68734;50.452;11.636;2024-02-14T02:48:01;95789.44;;;0.94;93.21
79285;BME280;68734;50.452;11.636;2024-02-14T02:50:27;95791.44;;;0.85;93.35
79285;BME280;68734;50.452;11.636;2024-02-14T02:52:53;95790.03;;;0.89;93.66
79285;BME280;68734;50.452;11.636;2024-02-14T02:55:20;95797.56;;;0.86;93.75
79285;BME280;68734;50.452;11.636;2024-02-14T02:57:45;95797.13;;;0.82;93.16
79285;BME280;68734;50.452;11.636;2024-02-14T03:00:13;95792.25;;;0.86;93.60
79285;BME280;68734;50.452;11.636;2024-02-14T03:02:39;95783.84;;;0.82;93.11
79285;BME280;68734;50.452;11.636;2024-02-14T03:05:10;95783.47;;;0.85;93.36
79285;BME280;68734;50.452;11.636;2024-02-14T03:07:43;95780.81;;;0.85;93.21
79285;BME280;68734;50.452;11.636;2024-02-14T03:10:10;95777.78;;;0.88;93.62
79285;BME280;68734;50.452;11.636;2024-02-14T03:12:38;95760.75;;;0.83;93.30
79285;BME280;68734;50.452;11.636;2024-02-14T03:15:04;95770.50;;;0.75;93.17
79285;BME280;68734;50.452;11.636;2024-02-14T03:17:30;95769.44;;;0.70;93.45
79285;BME280;68734;50.452;11.636;2024-02-14T03:19:57;95766.78;;;0.70;93.39
79285;BME280;68734;50.452;11.636;2024-02-14T03:22:22;95772.09;;;0.70;93.92
79285;BME280;68734;50.452;11.636;2024-02-14T03:24:48;95764.13;;;0.70;94.12
79285;BME280;68734;50.452;11.636;2024-02-14T03:27:13;95761.88;;;0.67;93.98
79285;BME280;68734;50.452;11.636;2024-02-14T03:29:39;95761.47;;;0.70;94.18
79285;BME280;68734;50.452;11.636;2024-02-14T03:32:09;95754.88;;;0.66;93.86
79285;BME280;68734;50.452;11.636;2024-02-14T03:34:35;95752.84;;;0.68;93.57
79285;BME280;68734;50.452;11.636;2024-02-14T03:37:01;95761.91;;;0.73;93.90
79285;BME280;68734;50.452;11.636;2024-02-14T03:39:32;95754.75;;;0.74;93.53
79285;BME280;68734;50.452;11.636;2024-02-14T03:41:57;95755.38;;;0.76;93.83
79285;BME280;68734;50.452;11.636;2024-02-14T03:44:26;95748.41;;;0.75;94.09
79285;BME280;68734;50.452;11.636;2024-02-14T03:46:53;95746.22;;;0.85;92.30
79285;BME280;68734;50.452;11.636;2024-02-14T03:49:19;95748.53;;;0.88;92.78
79285;BME280;68734;50.452;11.636;2024-02-14T03:51:45;95756.50;;;0.88;92.91
79285;BME280;68734;50.452;11.636;2024-02-14T03:54:11;95756.09;;;0.91;93.20
79285;BME280;68734;50.452;11.636;2024-02-14T03:56:37;95758.38;;;0.94;93.46
79285;BME280;68734;50.452;11.636;2024-02-14T03:59:02;95745.06;;;0.94;93.39
79285;BME280;68734;50.452;11.636;2024-02-14T04:01:31;95738.13;;;1.00;92.71
79285;BME280;68734;50.452;11.636;2024-02-14T04:03:56;95749.19;;;1.04;92.12
79285;BME280;68734;50.452;11.636;2024-02-14T04:06:21;95749.88;;;1.12;91.79
79285;BME280;68734;50.452;11.636;2024-02-14T04:08:47;95730.63;;;1.10;91.75
79285;BME280;68734;50.452;11.636;2024-02-14T04:11:12;95742.47;;;1.08;92.10
79285;BME280;68734;50.452;11.636;2024-02-14T04:13:41;95748.66;;;1.15;91.48
79285;BME280;68734;50.452;11.636;2024-02-14T04:16:07;95747.47;;;1.24;91.00
79285;BME280;68734;50.452;11.636;2024-02-14T04:18:33;95754.66;;;1.30;90.65
79285;BME280;68734;50.452;11.636;2024-02-14T04:20:58;95756.13;;;1.39;90.33
79285;BME280;68734;50.452;11.636;2024-02-14T04:23:24;95754.50;;;1.38;89.15
79285;BME280;68734;50.452;11.636;2024-02-14T04:25:50;95758.19;;;1.44;89.51
79285;BME280;68734;50.452;11.636;2024-02-14T04:28:16;95752.88;;;1.44;89.98
79285;BME280;68734;50.452;11.636;2024-02-14T04:30:41;95761.28;;;1.48;90.11
79285;BME280;68734;50.452;11.636;2024-02-14T04:33:08;95749.66;;;1.49;89.82
79285;BME280;68734;50.452;11.636;2024-02-14T04:35:34;95747.97;;;1.48;89.50
79285;BME280;68734;50.452;11.636;2024-02-14T04:38:00;95741.06;;;1.53;88.79
79285;BME280;68734;50.452;11.636;2024-02-14T04:40:26;95741.88;;;1.54;88.66
79285;BME280;68734;50.452;11.636;2024-02-14T04:42:51;95739.03;;;1.62;87.84
79285;BME280;68734;50.452;11.636;2024-02-14T04:45:17;95725.50;;;1.64;88.25
79285;BME280;68734;50.452;11.636;2024-02-14T04:47:42;95724.69;;;1.63;88.54
79285;BME280;68734;50.452;11.636;2024-02-14T04:50:08;95712.56;;;1.54;89.02
79285;BME280;68734;50.452;11.636;2024-02-14T04:52:34;95717.53;;;1.57;87.75
79285;BME280;68734;50.452;11.636;2024-02-14T04:54:59;95720.19;;;1.57;88.27
79285;BME280;68734;50.452;11.636;2024-02-14T04:57:25;95727.53;;;1.55;88.36
79285;BME280;68734;50.452;11.636;2024-02-14T04:59:50;95718.94;;;1.53;88.39
79285;BME280;68734;50.452;11.636;2024-02-14T05:02:16;95731.22;;;1.54;88.24
79285;BME280;68734;50.452;11.636;2024-02-14T05:04:44;95714.84;;;1.57;87.72
79285;BME280;68734;50.452;11.636;2024-02-14T05:07:12;95725.50;;;1.64;87.34
79285;BME280;68734;50.452;11.636;2024-02-14T05:09:37;95721.66;;;1.73;87.19
79285;BME280;68734;50.452;11.636;2024-02-14T05:12:03;95722.28;;;1.75;87.10
79285;BME280;68734;50.452;11.636;2024-02-14T05:14:31;95723.72;;;1.77;86.45
79285;BME280;68734;50.452;11.636;2024-02-14T05:16:57;95716.56;;;1.85;86.54
79285;BME280;68734;50.452;11.636;2024-02-14T05:19:22;95722.72;;;1.85;86.26
79285;BME280;68734;50.452;11.636;2024-02-14T05:21:50;95712.88;;;1.86;86.25
79285;BME280;68734;50.452;11.636;2024-02-14T05:24:16;95705.91;;;1.85;86.27
79285;BME280;68734;50.452;11.636;2024-02-14T05:26:41;95715.13;;;1.82;86.39
79285;BME280;68734;50.452;11.636;2024-02-14T05:29:06;95712.44;;;1.75;87.05
79285;BME280;68734;50.452;11.636;2024-02-14T05:31:46;95718.38;;;1.71;86.96
79285;BME280;68734;50.452;11.636;2024-02-14T05:34:11;95725.75;;;1.69;87.14
79285;BME280;68734;50.452;11.636;2024-02-14T05:36:37;95738.00;;;1.63;87.45
79285;BME280;68734;50.452;11.636;2024-02-14T05:39:03;95741.69;;;1.62;87.79
79285;BME280;68734;50.452;11.636;2024-02-14T05:41:30;95739.44;;;1.59;88.04
79285;BME280;68734;50.452;11.636;2024-02-14T05:43:58;95744.94;;;1.57;88.01
79285;BME280;68734;50.452;11.636;2024-02-14T05:46:26;95739.81;;;1.56;87.93
79285;BME280;68734;50.452;11.636;2024-02-14T05:48:52;95751.31;;;1.63;87.73
79285;BME280;68734;50.452;11.636;2024-02-14T05:51:18;95740.25;;;1.66;87.22
79285;BME280;68734;50.452;11.636;2024-02-14T05:53:44;95737.22;;;1.69;87.06
79285;BME280;68734;50.452;11.636;2024-02-14T05:56:09;95733.75;;;1.69;87.22
79285;BME280;68734;50.452;11.636;2024-02-14T05:58:35;95744.41;;;1.75;87.10
79285;BME280;68734;50.452;11.636;2024-02-14T06:01:01;95740.72;;;1.76;87.46
79285;BME280;68734;50.452;11.636;2024-02-14T06:03:26;95727.19;;;1.71;87.00
79285;BME280;68734;50.452;11.636;2024-02-14T06:05:52;95728.41;;;1.75;87.44
79285;BME280;68734;50.452;11.636;2024-02-14T06:08:18;95732.09;;;1.74;87.39
79285;BME280;68734;50.452;11.636;2024-02-14T06:10:43;95732.94;;;1.75;87.47
79285;BME280;68734;50.452;11.636;2024-02-14T06:13:09;95728.41;;;1.75;87.53
79285;BME280;68734;50.452;11.636;2024-02-14T06:15:37;95734.13;;;1.72;87.81
79285;BME280;68734;50.452;11.636;2024-02-14T06:18:02;95732.31;;;1.73;87.56
79285;BME280;68734;50.452;11.636;2024-02-14T06:20:28;95715.91;;;1.69;87.78
79285;BME280;68734;50.452;11.636;2024-02-14T06:22:53;95725.53;;;1.70;87.93
79285;BME280;68734;50.452;11.636;2024-02-14T06:25:20;95725.94;;;1.67;88.27
79285;BME280;68734;50.452;11.636;2024-02-14T06:27:45;95730.03;;;1.63;88.59
79285;BME280;68734;50.452;11.636;2024-02-14T06:30:11;95728.19;;;1.64;88.55
79285;BME280;68734;50.452;11.636;2024-02-14T06:32:36;95726.31;;;1.64;88.89
79285;BME280;68734;50.452;11.636;2024-02-14T06:35:02;95733.31;;;1.65;89.16
79285;BME280;68734;50.452;11.636;2024-02-14T06:37:28;95727.97;;;1.65;89.18
79285;BME280;68734;50.452;11.636;2024-02-14T06:39:53;95738.63;;;1.65;89.36
79285;BME280;68734;50.452;11.636;2024-02-14T06:42:18;95736.97;;;1.64;89.64
79285;BME280;68734;50.452;11.636;2024-02-14T06:44:45;95744.38;;;1.69;89.84
79285;BME280;68734;50.452;11.636;2024-02-14T06:47:12;95741.50;;;1.70;89.95
79285;BME280;68734;50.452;11.636;2024-02-14T06:49:38;95744.78;;;1.72;90.10
79285;BME280;68734;50.452;11.636;2024-02-14T06:52:04;95741.13;;;1.73;90.01
79285;BME280;68734;50.452;11.636;2024-02-14T06:54:30;95741.53;;;1.77;89.95
79285;BME280;68734;50.452;11.636;2024-02-14T06:56:55;95742.78;;;1.81;90.33
79285;BME280;68734;50.452;11.636;2024-02-14T06:59:21;95743.59;;;1.88;90.26
79285;BME280;68734;50.452;11.636;2024-02-14T07:01:46;95742.41;;;1.91;90.06
79285;BME280;68734;50.452;11.636;2024-02-14T07:04:11;95737.69;;;1.93;90.00
79285;BME280;68734;50.452;11.636;2024-02-14T07:06:37;95749.16;;;2.00;89.64
79285;BME280;68734;50.452;11.636;2024-02-14T07:09:02;95730.94;;;1.97;89.75
79285;BME280;68734;50.452;11.636;2024-02-14T07:11:28;95745.28;;;2.03;89.65
79285;BME280;68734;50.452;11.636;2024-02-14T07:13:53;95736.69;;;2.07;90.20
79285;BME280;68734;50.452;11.636;2024-02-14T07:16:21;95713.31;;;2.09;91.20
79285;BME280;68734;50.452;11.636;2024-02-14T07:18:47;95727.25;;;2.11;91.82
79285;BME280;68734;50.452;11.636;2024-02-14T07:21:12;95726.44;;;2.17;91.90
79285;BME280;68734;50.452;11.636;2024-02-14T07:23:38;95723.59;;;2.26;91.41
79285;BME280;68734;50.452;11.636;2024-02-14T07:26:03;95721.94;;;2.31;91.03
79285;BME280;68734;50.452;11.636;2024-02-14T07:28:29;95715.59;;;2.39;90.36
79285;BME280;68734;50.452;11.636;2024-02-14T07:30:54;95713.34;;;2.49;90.39
79285;BME280;68734;50.452;11.636;2024-02-14T07:33:20;95694.47;;;2.57;90.13
79285;BME280;68734;50.452;11.636;2024-02-14T07:35:45;95687.91;;;2.67;89.84
79285;BME280;68734;50.452;11.636;2024-02-14T07:38:12;95684.56;;;2.78;89.92
79285;BME280;68734;50.452;11.636;2024-02-14T07:40:38;95688.84;;;2.92;89.70
79285;BME280;68734;50.452;11.636;2024-02-14T07:43:04;95704.25;;;2.97;89.54
79285;BME280;68734;50.452;11.636;2024-02-14T07:45:31;95704.47;;;2.95;89.53
79285;BME280;68734;50.452;11.636;2024-02-14T07:47:57;95712.81;;;3.19;89.00
79285;BME280;68734;50.452;11.636;2024-02-14T07:50:22;95709.03;;;3.40;87.60
79285;BME280;68734;50.452;11.636;2024-02-14T07:52:48;95715.94;;;3.54;86.92
79285;BME280;68734;50.452;11.636;2024-02-14T07:55:13;95724.97;;;3.60;86.58
79285;BME280;68734;50.452;11.636;2024-02-14T07:57:42;95721.28;;;3.61;86.57
79285;BME280;68734;50.452;11.636;2024-02-14T08:00:08;95715.56;;;3.51;86.98
79285;BME280;68734;50.452;11.636;2024-02-14T08:02:35;95720.13;;;3.44;87.78
79285;BME280;68734;50.452;11.636;2024-02-14T08:05:01;95710.69;;;3.34;88.16
79285;BME280;68734;50.452;11.636;2024-02-14T08:07:27;95712.16;;;3.30;88.89
79285;BME280;68734;50.452;11.636;2024-02-14T08:09:55;95708.69;;;3.23;89.97
79285;BME280;68734;50.452;11.636;2024-02-14T08:12:20;95711.97;;;3.25;89.96
79285;BME280;68734;50.452;11.636;2024-02-14T08:14:46;95709.06;;;3.33;90.32
79285;BME280;68734;50.452;11.636;2024-02-14T08:17:12;95729.19;;;3.36;90.23
79285;BME280;68734;50.452;11.636;2024-02-14T08:19:38;95736.78;;;3.32;90.87
79285;BME280;68734;50.452;11.636;2024-02-14T08:22:05;95746.84;;;3.30;90.89
79285;BME280;68734;50.452;11.636;2024-02-14T08:24:31;95756.50;;;3.31;91.29
79285;BME280;68734;50.452;11.636;2024-02-14T08:26:56;95774.78;;;3.28;91.34
79285;BME280;68734;50.452;11.636;2024-02-14T08:29:22;95773.97;;;3.27;91.91
79285;BME280;68734;50.452;11.636;2024-02-14T08:31:48;95769.44;;;3.28;92.14
79285;BME280;68734;50.452;11.636;2024-02-14T08:34:14;95778.06;;;3.30;92.96
79285;BME280;68734;50.452;11.636;2024-02-14T08:36:40;95775.19;;;3.31;92.83
79285;BME280;68734;50.452;11.636;2024-02-14T08:39:09;95773.75;;;3.35;93.27
79285;BME280;68734;50.452;11.636;2024-02-14T08:41:39;95772.31;;;3.39;93.65
79285;BME280;68734;50.452;11.636;2024-02-14T08:44:06;95779.28;;;3.47;93.42
79285;BME280;68734;50.452;11.636;2024-02-14T08:46:32;95775.34;;;3.50;93.12
79285;BME280;68734;50.452;11.636;2024-02-14T08:49:00;95777.97;;;3.63;92.85
79285;BME280;68734;50.452;11.636;2024-02-14T08:51:27;95785.69;;;3.85;92.26
79285;BME280;68734;50.452;11.636;2024-02-14T08:53:52;95773.06;;;3.98;91.81
79285;BME280;68734;50.452;11.636;2024-02-14T08:56:24;95785.72;;;4.16;91.63
79285;BME280;68734;50.452;11.636;2024-02-14T08:58:49;95783.84;;;4.24;90.86
79285;BME280;68734;50.452;11.636;2024-02-14T09:01:17;95786.94;;;4.20;89.86
79285;BME280;68734;50.452;11.636;2024-02-14T09:03:43;95799.91;;;4.24;90.08
79285;BME280;68734;50.452;11.636;2024-02-14T09:06:13;95766.59;;;4.19;90.09
79285;BME280;68734;50.452;11.636;2024-02-14T09:08:41;95769.03;;;4.28;90.19
79285;BME280;68734;50.452;11.636;2024-02-14T09:11:06;95778.41;;;4.37;90.00
79285;BME280;68734;50.452;11.636;2024-02-14T09:13:33;95785.31;;;4.51;89.65
79285;BME280;68734;50.452;11.636;2024-02-14T09:15:58;95790.53;;;4.71;88.41
79285;BME280;68734;50.452;11.636;2024-02-14T09:18:24;95805.31;;;4.99;87.13
79285;BME280;68734;50.452;11.636;2024-02-14T09:20:50;95792.13;;;5.23;86.18
79285;BME280;68734;50.452;11.636;2024-02-14T09:23:17;95784.44;;;5.51;84.99
79285;BME280;68734;50.452;11.636;2024-02-14T09:25:47;95781.22;;;5.79;84.29
79285;BME280;68734;50.452;11.636;2024-02-14T09:28:13;95786.03;;;5.89;84.32
79285;BME280;68734;50.452;11.636;2024-02-14T09:30:39;95784.03;;;5.85;83.07
79285;BME280;68734;50.452;11.636;2024-02-14T09:33:05;95782.41;;;5.84;83.84
79285;BME280;68734;50.452;11.636;2024-02-14T09:35:30;95784.13;;;5.78;83.73
79285;BME280;68734;50.452;11.636;2024-02-14T09:37:56;95778.69;;;5.66;83.16
79285;BME280;68734;50.452;11.636;2024-02-14T09:40:21;95801.16;;;5.65;83.56
79285;BME280;68734;50.452;11.636;2024-02-14T09:42:56;95808.38;;;5.46;83.84
79285;BME280;68734;50.452;11.636;2024-02-14T09:45:26;95794.69;;;5.36;85.26
79285;BME280;68734;50.452;11.636;2024-02-14T09:47:53;95793.41;;;5.38;85.87
79285;BME280;68734;50.452;11.636;2024-02-14T09:50:19;95794.53;;;5.31;85.54
79285;BME280;68734;50.452;11.636;2024-02-14T09:52:49;95790.44;;;5.28;85.90
79285;BME280;68734;50.452;11.636;2024-02-14T09:55:16;95788.75;;;5.34;85.32
79285;BME280;68734;50.452;11.636;2024-02-14T09:57:45;95793.31;;;5.27;85.68
79285;BME280;68734;50.452;11.636;2024-02-14T10:00:12;95805.63;;;5.34;85.89
79285;BME280;68734;50.452;11.636;2024-02-14T10:02:41;95812.63;;;5.35;85.14
79285;BME280;68734;50.452;11.636;2024-02-14T10:05:07;95822.75;;;5.33;85.69
79285;BME280;68734;50.452;11.636;2024-02-14T10:07:43;95820.41;;;5.37;85.07
79285;BME280;68734;50.452;11.636;2024-02-14T10:10:09;95813.94;;;5.26;84.99
79285;BME280;68734;50.452;11.636;2024-02-14T10:12:35;95818.09;;;5.22;85.82
79285;BME280;68734;50.452;11.636;2024-02-14T10:15:01;95813.41;;;5.17;85.82
79285;BME280;68734;50.452;11.636;2024-02-14T10:17:27;95809.69;;;5.18;85.69
79285;BME280;68734;50.452;11.636;2024-02-14T10:20:00;95796.88;;;5.20;86.27
79285;BME280;68734;50.452;11.636;2024-02-14T10:22:37;95805.31;;;5.24;86.79
79285;BME280;68734;50.452;11.636;2024-02-14T10:25:04;95793.22;;;5.15;86.92
79285;BME280;68734;50.452;11.636;2024-02-14T10:27:36;95804.50;;;5.24;87.74
79285;BME280;68734;50.452;11.636;2024-02-14T10:30:06;95822.25;;;5.18;87.75
79285;BME280;68734;50.452;11.636;2024-02-14T10:32:39;95823.03;;;5.25;86.92
79285;BME280;68734;50.452;11.636;2024-02-14T10:35:06;95830.28;;;5.18;87.87
79285;BME280;68734;50.452;11.636;2024-02-14T10:37:36;95839.59;;;5.15;87.33
79285;BME280;68734;50.452;11.636;2024-02-14T10:40:03;95840.47;;;5.09;88.03
79285;BME280;68734;50.452;11.636;2024-02-14T10:42:30;95849.31;;;5.10;87.59
79285;BME280;68734;50.452;11.636;2024-02-14T10:44:56;95855.69;;;5.09;87.62
79285;BME280;68734;50.452;11.636;2024-02-14T10:47:25;95847.91;;;5.07;87.93
79285;BME280;68734;50.452;11.636;2024-02-14T10:49:57;95852.00;;;5.10;88.18
79285;BME280;68734;50.452;11.636;2024-02-14T10:52:26;95840.50;;;5.03;88.56
79285;BME280;68734;50.452;11.636;2024-02-14T10:54:56;95841.00;;;4.93;89.70
79285;BME280;68734;50.452;11.636;2024-02-14T10:57:24;95854.75;;;4.96;89.95
79285;BME280;68734;50.452;11.636;2024-02-14T10:59:51;95857.81;;;5.00;90.25
79285;BME280;68734;50.452;11.636;2024-02-14T11:02:18;95851.22;;;5.03;90.41
79285;BME280;68734;50.452;11.636;2024-02-14T11:04:49;95849.25;;;4.91;90.31
79285;BME280;68734;50.452;11.636;2024-02-14T11:07:19;95835.09;;;4.84;91.08
79285;BME280;68734;50.452;11.636;2024-02-14T11:09:45;95850.47;;;4.95;91.27
79285;BME280;68734;50.452;11.636;2024-02-14T11:12:12;95851.47;;;4.94;90.98
79285;BME280;68734;50.452;11.636;2024-02-14T11:14:42;95843.91;;;4.91;91.48
79285;BME280;68734;50.452;11.636;2024-02-14T11:17:12;95846.72;;;4.96;91.01
79285;BME280;68734;50.452;11.636;2024-02-14T11:19:38;95841.97;;;4.98;90.71
79285;BME280;68734;50.452;11.636;2024-02-14T11:22:12;95839.63;;;5.09;90.87
79285;BME280;68734;50.452;11.636;2024-02-14T11:24:45;95855.66;;;5.15;90.89
79285;BME280;68734;50.452;11.636;2024-02-14T11:27:11;95830.50;;;5.16;90.22
79285;BME280;68734;50.452;11.636;2024-02-14T11:29:39;95835.78;;;5.23;89.88
79285;BME280;68734;50.452;11.636;2024-02-14T11:32:06;95836.13;;;5.33;90.09
79285;BME280;68734;50.452;11.636;2024-02-14T11:34:34;95847.00;;;5.38;89.67
79285;BME280;68734;50.452;11.636;2024-02-14T11:36:59;95835.69;;;5.36;90.23
79285;BME280;68734;50.452;11.636;2024-02-14T11:39:25;95848.78;;;5.45;89.96
79285;BME280;68734;50.452;11.636;2024-02-14T11:41:51;95840.03;;;5.56;89.43
79285;BME280;68734;50.452;11.636;2024-02-14T11:44:18;95838.69;;;5.65;88.63
79285;BME280;68734;50.452;11.636;2024-02-14T11:46:45;95825.81;;;5.74;87.61
79285;BME280;68734;50.452;11.636;2024-02-14T11:49:11;95836.59;;;5.67;88.02
79285;BME280;68734;50.452;11.636;2024-02-14T11:51:39;95827.00;;;5.78;87.80
79285;BME280;68734;50.452;11.636;2024-02-14T11:54:06;95822.47;;;5.60;87.75
79285;BME280;68734;50.452;11.636;2024-02-14T11:56:36;95819.78;;;5.60;88.16
79285;BME280;68734;50.452;11.636;2024-02-14T11:59:05;95813.03;;;5.76;88.34
79285;BME280;68734;50.452;11.636;2024-02-14T12:01:32;95815.31;;;5.91;87.36
79285;BME280;68734;50.452;11.636;2024-02-14T12:04:02;95820.88;;;5.96;86.65
79285;BME280;68734;50.452;11.636;2024-02-14T12:06:31;95823.53;;;5.96;86.74
79285;BME280;68734;50.452;11.636;2024-02-14T12:09:03;95819.03;;;5.90;86.75
79285;BME280;68734;50.452;11.636;2024-02-14T12:11:38;95828.38;;;6.06;86.29
79285;BME280;68734;50.452;11.636;2024-02-14T12:14:08;95825.28;;;6.21;85.52
79285;BME280;68734;50.452;11.636;2024-02-14T12:16:34;95832.47;;;6.08;85.37
79285;BME280;68734;50.452;11.636;2024-02-14T12:19:13;95833.78;;;6.36;85.12
79285;BME280;68734;50.452;11.636;2024-02-14T12:21:41;95836.50;;;6.48;85.19
79285;BME280;68734;50.452;11.636;2024-02-14T12:24:07;95836.13;;;6.44;85.11
79285;BME280;68734;50.452;11.636;2024-02-14T12:26:34;95838.66;;;6.39;85.49
79285;BME280;68734;50.452;11.636;2024-02-14T12:29:02;95825.56;;;6.31;85.82
79285;BME280;68734;50.452;11.636;2024-02-14T12:31:29;95848.94;;;6.12;86.28
79285;BME280;68734;50.452;11.636;2024-02-14T12:33:56;95838.41;;;5.92;87.42
79285;BME280;68734;50.452;11.636;2024-02-14T12:36:25;95845.41;;;5.93;87.50
79285;BME280;68734;50.452;11.636;2024-02-14T12:38:50;95847.81;;;6.01;87.17
79285;BME280;68734;50.452;11.636;2024-02-14T12:41:18;95842.13;;;5.91;87.38
79285;BME280;68734;50.452;11.636;2024-02-14T12:43:44;95847.66;;;5.77;88.03
79285;BME280;68734;50.452;11.636;2024-02-14T12:46:09;95832.38;;;5.78;88.65
79285;BME280;68734;50.452;11.636;2024-02-14T12:48:37;95837.81;;;5.71;89.51
79285;BME280;68734;50.452;11.636;2024-02-14T12:51:02;95834.59;;;5.63;90.45
79285;BME280;68734;50.452;11.636;2024-02-14T12:53:28;95840.41;;;5.59;91.25
79285;BME280;68734;50.452;11.636;2024-02-14T12:55:53;95845.31;;;5.63;91.67
79285;BME280;68734;50.452;11.636;2024-02-14T12:58:19;95836.38;;;5.69;90.88